EWG5PC EDDL-ESGG
Flight info
| Callsign | EWG5PC |
|---|---|
| Flight time | 1h 12m |
| Altitude | 37000 |
| Route | MEVEL1Z MEVEL Y850 BASUM DCT DOSUR DCT KUVUS N607 MAKUR |
| Aircraft | A320/M-SDE3FGHIRWY/LB1 |
Departure
| Time | 2026-05-06 19:47 |
|---|---|
| Airport | Düsseldorf Airport (EDDL) |
Arrival
| Time | 2026-05-06 21:00 |
|---|---|
| Airport | Göteborg Landvetter Airport (ESGG) |
| Time | Latitude | Longitude | Altitude | Speed | Heading |
|---|---|---|---|---|---|
| 2026-05-06 19:17 | 51.28108 | 6.76545 | 137 ft | 0 kts | 96° |
| 2026-05-06 19:36 | 51.28111 | 6.76513 | 137 ft | 4 kts | 100° |
| 2026-05-06 19:36 | 51.28116 | 6.76472 | 137 ft | 4 kts | 103° |
| 2026-05-06 19:36 | 51.28120 | 6.76430 | 137 ft | 4 kts | 72° |
| 2026-05-06 19:37 | 51.28116 | 6.76416 | 137 ft | 0 kts | 6° |
| 2026-05-06 19:41 | 51.28120 | 6.76408 | 137 ft | 1 kts | 312° |
| 2026-05-06 19:41 | 51.28129 | 6.76362 | 137 ft | 7 kts | 291° |
| 2026-05-06 19:41 | 51.28168 | 6.76272 | 137 ft | 12 kts | 320° |
| 2026-05-06 19:41 | 51.28196 | 6.76158 | 137 ft | 13 kts | 234° |
| 2026-05-06 19:42 | 51.28136 | 6.76039 | 137 ft | 14 kts | 233° |
| 2026-05-06 19:42 | 51.28080 | 6.75917 | 137 ft | 14 kts | 233° |
| 2026-05-06 19:42 | 51.28017 | 6.75786 | 137 ft | 16 kts | 232° |
| 2026-05-06 19:42 | 51.27948 | 6.75644 | 137 ft | 16 kts | 231° |
| 2026-05-06 19:43 | 51.27880 | 6.75502 | 137 ft | 13 kts | 233° |
| 2026-05-06 19:43 | 51.27840 | 6.75394 | 136 ft | 10 kts | 265° |
| 2026-05-06 19:43 | 51.27882 | 6.75317 | 135 ft | 8 kts | 332° |
| 2026-05-06 19:43 | 51.27885 | 6.75315 | 135 ft | 0 kts | 332° |
| 2026-05-06 19:45 | 51.27903 | 6.75300 | 134 ft | 9 kts | 332° |
| 2026-05-06 19:45 | 51.27978 | 6.75260 | 131 ft | 12 kts | 15° |
| 2026-05-06 19:46 | 51.28015 | 6.75319 | 128 ft | 0 kts | 52° |
| 2026-05-06 19:47 | 51.28059 | 6.75408 | 128 ft | 37 kts | 52° |
| 2026-05-06 19:47 | 51.28385 | 6.76086 | 133 ft | 113 kts | 52° |
| 2026-05-06 19:47 | 51.28974 | 6.77322 | 247 ft | 155 kts | 50° |
| 2026-05-06 19:47 | 51.29606 | 6.78683 | 1046 ft | 151 kts | 50° |
| 2026-05-06 19:48 | 51.30263 | 6.80059 | 1679 ft | 166 kts | 50° |
| 2026-05-06 19:48 | 51.31015 | 6.81621 | 2098 ft | 188 kts | 51° |
| 2026-05-06 19:48 | 51.31870 | 6.83424 | 2465 ft | 218 kts | 52° |
| 2026-05-06 19:48 | 51.32827 | 6.85446 | 3074 ft | 240 kts | 51° |
| 2026-05-06 19:49 | 51.33856 | 6.87620 | 3997 ft | 248 kts | 50° |
| 2026-05-06 19:49 | 51.35116 | 6.89535 | 4985 ft | 253 kts | 34° |
| 2026-05-06 19:49 | 51.36691 | 6.90801 | 6024 ft | 256 kts | 17° |
| 2026-05-06 19:49 | 51.38448 | 6.91360 | 6977 ft | 260 kts | 9° |
| 2026-05-06 19:50 | 51.40246 | 6.91831 | 7898 ft | 264 kts | 9° |
| 2026-05-06 19:50 | 51.42072 | 6.92320 | 8798 ft | 269 kts | 9° |
| 2026-05-06 19:50 | 51.43937 | 6.92817 | 9701 ft | 274 kts | 9° |
| 2026-05-06 19:50 | 51.45850 | 6.93327 | 10315 ft | 289 kts | 9° |
| 2026-05-06 19:51 | 51.47916 | 6.93881 | 10654 ft | 311 kts | 8° |
| 2026-05-06 19:51 | 51.50117 | 6.94124 | 10936 ft | 334 kts | 358° |
| 2026-05-06 19:51 | 51.52494 | 6.93613 | 11160 ft | 356 kts | 350° |
| 2026-05-06 19:51 | 51.54931 | 6.92919 | 12100 ft | 348 kts | 350° |
| 2026-05-06 19:52 | 51.57272 | 6.92257 | 13450 ft | 338 kts | 350° |
| 2026-05-06 19:52 | 51.59590 | 6.91601 | 14299 ft | 339 kts | 349° |
| 2026-05-06 19:52 | 51.61930 | 6.90940 | 14997 ft | 343 kts | 349° |
| 2026-05-06 19:52 | 51.64301 | 6.90274 | 15678 ft | 348 kts | 349° |
| 2026-05-06 19:53 | 51.66730 | 6.89958 | 16326 ft | 355 kts | 1° |
| 2026-05-06 19:53 | 51.69185 | 6.90621 | 16970 ft | 362 kts | 15° |
| 2026-05-06 19:53 | 51.71508 | 6.92276 | 17619 ft | 370 kts | 30° |
| 2026-05-06 19:53 | 51.73536 | 6.94882 | 18237 ft | 378 kts | 45° |
| 2026-05-06 19:54 | 51.75176 | 6.98244 | 18807 ft | 383 kts | 53° |
| 2026-05-06 19:54 | 51.76755 | 7.01734 | 19395 ft | 387 kts | 53° |
| 2026-05-06 19:54 | 51.78354 | 7.05259 | 20005 ft | 391 kts | 53° |
| 2026-05-06 19:54 | 51.79971 | 7.08812 | 20607 ft | 394 kts | 53° |
| 2026-05-06 19:55 | 51.81601 | 7.12398 | 21205 ft | 398 kts | 53° |
| 2026-05-06 19:55 | 51.83246 | 7.16020 | 21805 ft | 401 kts | 53° |
| 2026-05-06 19:55 | 51.84906 | 7.19681 | 22400 ft | 405 kts | 52° |
| 2026-05-06 19:55 | 51.86756 | 7.23115 | 22983 ft | 407 kts | 45° |
| 2026-05-06 19:56 | 51.88729 | 7.26432 | 23552 ft | 411 kts | 45° |
| 2026-05-06 19:56 | 51.90694 | 7.29738 | 24034 ft | 414 kts | 45° |
| 2026-05-06 19:56 | 51.92721 | 7.33157 | 24524 ft | 417 kts | 45° |
| 2026-05-06 19:56 | 51.94704 | 7.36513 | 25004 ft | 419 kts | 46° |
| 2026-05-06 19:57 | 51.96724 | 7.39939 | 25450 ft | 422 kts | 46° |
| 2026-05-06 19:57 | 51.98753 | 7.43388 | 25890 ft | 424 kts | 46° |
| 2026-05-06 19:57 | 52.00824 | 7.46914 | 26335 ft | 427 kts | 46° |
| 2026-05-06 19:57 | 52.02849 | 7.50366 | 26747 ft | 429 kts | 46° |
| 2026-05-06 19:58 | 52.04916 | 7.53896 | 27163 ft | 432 kts | 46° |
| 2026-05-06 19:58 | 52.06989 | 7.57442 | 27572 ft | 435 kts | 46° |
| 2026-05-06 19:58 | 52.09076 | 7.61017 | 27971 ft | 437 kts | 46° |
| 2026-05-06 19:58 | 52.11183 | 7.64610 | 28361 ft | 440 kts | 46° |
| 2026-05-06 19:59 | 52.13318 | 7.68192 | 28751 ft | 443 kts | 46° |
| 2026-05-06 19:59 | 52.15480 | 7.71783 | 29135 ft | 445 kts | 46° |
| 2026-05-06 19:59 | 52.17660 | 7.75387 | 29526 ft | 447 kts | 46° |
| 2026-05-06 19:59 | 52.19846 | 7.79022 | 29887 ft | 450 kts | 46° |
| 2026-05-06 20:00 | 52.22025 | 7.82702 | 30190 ft | 452 kts | 46° |
| 2026-05-06 20:00 | 52.24202 | 7.86422 | 30466 ft | 455 kts | 47° |
| 2026-05-06 20:00 | 52.26383 | 7.90175 | 30735 ft | 457 kts | 47° |
| 2026-05-06 20:00 | 52.28574 | 7.93950 | 30995 ft | 459 kts | 47° |
| 2026-05-06 20:01 | 52.30775 | 7.97748 | 31249 ft | 462 kts | 47° |
| 2026-05-06 20:01 | 52.32994 | 8.01575 | 31494 ft | 464 kts | 47° |
| 2026-05-06 20:01 | 52.35221 | 8.05414 | 31802 ft | 465 kts | 46° |
| 2026-05-06 20:01 | 52.37446 | 8.09244 | 32156 ft | 465 kts | 46° |
| 2026-05-06 20:02 | 52.39675 | 8.13082 | 32490 ft | 465 kts | 46° |
| 2026-05-06 20:02 | 52.41901 | 8.16926 | 32828 ft | 465 kts | 46° |
| 2026-05-06 20:02 | 52.44123 | 8.20776 | 33170 ft | 465 kts | 46° |
| 2026-05-06 20:02 | 52.46345 | 8.24632 | 33521 ft | 465 kts | 46° |
| 2026-05-06 20:03 | 52.48564 | 8.28492 | 33863 ft | 466 kts | 46° |
| 2026-05-06 20:03 | 52.50786 | 8.32368 | 34146 ft | 466 kts | 46° |
| 2026-05-06 20:03 | 52.53003 | 8.36246 | 34417 ft | 466 kts | 46° |
| 2026-05-06 20:03 | 52.55226 | 8.40133 | 34685 ft | 467 kts | 46° |
| 2026-05-06 20:04 | 52.57451 | 8.44022 | 34943 ft | 467 kts | 46° |
| 2026-05-06 20:04 | 52.59676 | 8.47914 | 35211 ft | 467 kts | 46° |
| 2026-05-06 20:04 | 52.61905 | 8.51820 | 35428 ft | 468 kts | 46° |
| 2026-05-06 20:04 | 52.64129 | 8.55728 | 35680 ft | 468 kts | 46° |
| 2026-05-06 20:05 | 52.66357 | 8.59650 | 35934 ft | 469 kts | 46° |
| 2026-05-06 20:05 | 52.68579 | 8.63575 | 36193 ft | 469 kts | 47° |
| 2026-05-06 20:05 | 52.70806 | 8.67518 | 36432 ft | 469 kts | 47° |
| 2026-05-06 20:05 | 52.73037 | 8.71448 | 36661 ft | 469 kts | 45° |
| 2026-05-06 20:06 | 52.75508 | 8.74942 | 36856 ft | 469 kts | 33° |
| 2026-05-06 20:06 | 52.78330 | 8.77575 | 36906 ft | 465 kts | 21° |
| 2026-05-06 20:06 | 52.84538 | 8.80146 | 36915 ft | 459 kts | 3° |
| 2026-05-06 20:07 | 52.90893 | 8.81305 | 36914 ft | 459 kts | 4° |
| 2026-05-06 20:07 | 52.97243 | 8.82553 | 36920 ft | 459 kts | 4° |
| 2026-05-06 20:08 | 53.03596 | 8.83773 | 36920 ft | 459 kts | 4° |
| 2026-05-06 20:08 | 53.09945 | 8.84964 | 36924 ft | 459 kts | 4° |
| 2026-05-06 20:09 | 53.16298 | 8.86145 | 36926 ft | 459 kts | 4° |
| 2026-05-06 20:09 | 53.22650 | 8.87341 | 36924 ft | 459 kts | 4° |
| 2026-05-06 20:10 | 53.28966 | 8.88533 | 36925 ft | 459 kts | 4° |
| 2026-05-06 20:10 | 53.35314 | 8.89736 | 36921 ft | 459 kts | 4° |
| 2026-05-06 20:11 | 53.41664 | 8.90949 | 36920 ft | 459 kts | 4° |
| 2026-05-06 20:11 | 53.48013 | 8.92160 | 36921 ft | 459 kts | 4° |
| 2026-05-06 20:12 | 53.54360 | 8.93376 | 36925 ft | 459 kts | 4° |
| 2026-05-06 20:12 | 53.60706 | 8.94599 | 36931 ft | 459 kts | 4° |
| 2026-05-06 20:13 | 53.67054 | 8.95831 | 36927 ft | 459 kts | 4° |
| 2026-05-06 20:13 | 53.73401 | 8.97052 | 36930 ft | 459 kts | 4° |
| 2026-05-06 20:14 | 53.79749 | 8.98282 | 36930 ft | 459 kts | 4° |
| 2026-05-06 20:14 | 53.86097 | 8.99516 | 36930 ft | 459 kts | 4° |
| 2026-05-06 20:15 | 53.92445 | 9.00749 | 36931 ft | 459 kts | 4° |
| 2026-05-06 20:15 | 53.98794 | 9.01991 | 36929 ft | 459 kts | 4° |
| 2026-05-06 20:16 | 54.05138 | 9.03229 | 36936 ft | 459 kts | 4° |
| 2026-05-06 20:16 | 54.11446 | 9.04466 | 36935 ft | 459 kts | 4° |
| 2026-05-06 20:17 | 54.17793 | 9.05711 | 36944 ft | 459 kts | 4° |
| 2026-05-06 20:17 | 54.24140 | 9.06965 | 36947 ft | 459 kts | 4° |
| 2026-05-06 20:18 | 54.30487 | 9.08233 | 36951 ft | 459 kts | 4° |
| 2026-05-06 20:18 | 54.36835 | 9.09507 | 36955 ft | 459 kts | 4° |
| 2026-05-06 20:19 | 54.43185 | 9.10781 | 36954 ft | 459 kts | 4° |
| 2026-05-06 20:19 | 54.49538 | 9.12061 | 36949 ft | 459 kts | 4° |
| 2026-05-06 20:20 | 54.54814 | 9.13118 | 36948 ft | 459 kts | 4° |
| 2026-05-06 20:20 | 54.61168 | 9.14389 | 36961 ft | 459 kts | 4° |
| 2026-05-06 20:21 | 54.67517 | 9.15684 | 36959 ft | 460 kts | 4° |
| 2026-05-06 20:21 | 54.73867 | 9.16969 | 36965 ft | 460 kts | 4° |
| 2026-05-06 20:22 | 54.80227 | 9.18258 | 36970 ft | 460 kts | 4° |
| 2026-05-06 20:22 | 54.86548 | 9.20033 | 36971 ft | 463 kts | 14° |
| 2026-05-06 20:23 | 54.92594 | 9.23984 | 36971 ft | 465 kts | 19° |
| 2026-05-06 20:23 | 54.98614 | 9.28111 | 36977 ft | 465 kts | 19° |
| 2026-05-06 20:24 | 55.04635 | 9.32231 | 36977 ft | 465 kts | 19° |
| 2026-05-06 20:24 | 55.10622 | 9.36349 | 36983 ft | 465 kts | 19° |
| 2026-05-06 20:25 | 55.16647 | 9.40510 | 36985 ft | 466 kts | 19° |
| 2026-05-06 20:25 | 55.22680 | 9.44682 | 36987 ft | 466 kts | 19° |
| 2026-05-06 20:26 | 55.28711 | 9.48860 | 36986 ft | 466 kts | 19° |
| 2026-05-06 20:26 | 55.34741 | 9.53059 | 36986 ft | 466 kts | 19° |
| 2026-05-06 20:27 | 55.40773 | 9.57282 | 36986 ft | 466 kts | 19° |
| 2026-05-06 20:27 | 55.46803 | 9.61513 | 36985 ft | 466 kts | 19° |
| 2026-05-06 20:28 | 55.52833 | 9.65749 | 36987 ft | 467 kts | 19° |
| 2026-05-06 20:28 | 55.58822 | 9.69974 | 36991 ft | 467 kts | 19° |
| 2026-05-06 20:29 | 55.64854 | 9.74246 | 36997 ft | 467 kts | 19° |
| 2026-05-06 20:29 | 55.70888 | 9.78534 | 36996 ft | 467 kts | 19° |
| 2026-05-06 20:30 | 55.79935 | 9.84983 | 36996 ft | 467 kts | 19° |
| 2026-05-06 20:31 | 55.85974 | 9.89311 | 37000 ft | 468 kts | 19° |
| 2026-05-06 20:31 | 55.92005 | 9.93655 | 37000 ft | 468 kts | 19° |
| 2026-05-06 20:32 | 55.98041 | 9.98011 | 36999 ft | 468 kts | 19° |
| 2026-05-06 20:32 | 56.04083 | 10.02371 | 36993 ft | 468 kts | 19° |
| 2026-05-06 20:33 | 56.10131 | 10.06754 | 36996 ft | 468 kts | 19° |
| 2026-05-06 20:33 | 56.16171 | 10.11165 | 37004 ft | 469 kts | 19° |
| 2026-05-06 20:34 | 56.22212 | 10.15594 | 37003 ft | 469 kts | 19° |
| 2026-05-06 20:34 | 56.28255 | 10.20018 | 37007 ft | 469 kts | 19° |
| 2026-05-06 20:35 | 56.34308 | 10.24458 | 37005 ft | 470 kts | 19° |
| 2026-05-06 20:35 | 56.40357 | 10.28931 | 37005 ft | 470 kts | 19° |
| 2026-05-06 20:36 | 56.46405 | 10.33418 | 37001 ft | 470 kts | 19° |
| 2026-05-06 20:36 | 56.52455 | 10.37913 | 37001 ft | 470 kts | 19° |
| 2026-05-06 20:37 | 56.58471 | 10.42392 | 36998 ft | 471 kts | 19° |
| 2026-05-06 20:37 | 56.64529 | 10.46939 | 36998 ft | 471 kts | 19° |
| 2026-05-06 20:38 | 56.70585 | 10.51501 | 36947 ft | 472 kts | 19° |
| 2026-05-06 20:38 | 56.73622 | 10.53792 | 36684 ft | 472 kts | 19° |
| 2026-05-06 20:38 | 56.76653 | 10.56081 | 36244 ft | 473 kts | 19° |
| 2026-05-06 20:38 | 56.79709 | 10.58386 | 35344 ft | 477 kts | 19° |
| 2026-05-06 20:39 | 56.82793 | 10.60715 | 34371 ft | 483 kts | 19° |
| 2026-05-06 20:39 | 56.85891 | 10.63061 | 33788 ft | 479 kts | 19° |
| 2026-05-06 20:39 | 56.88953 | 10.65392 | 33135 ft | 475 kts | 19° |
| 2026-05-06 20:39 | 56.91983 | 10.67707 | 32521 ft | 470 kts | 19° |
| 2026-05-06 20:40 | 56.94993 | 10.70017 | 31906 ft | 467 kts | 19° |
| 2026-05-06 20:40 | 56.97975 | 10.72308 | 31297 ft | 464 kts | 19° |
| 2026-05-06 20:40 | 57.00941 | 10.74586 | 30696 ft | 461 kts | 18° |
| 2026-05-06 20:40 | 57.03894 | 10.76844 | 30110 ft | 458 kts | 18° |
| 2026-05-06 20:41 | 57.06833 | 10.79087 | 29459 ft | 455 kts | 18° |
| 2026-05-06 20:41 | 57.09738 | 10.81310 | 28897 ft | 450 kts | 18° |
| 2026-05-06 20:41 | 57.12614 | 10.83525 | 28341 ft | 446 kts | 18° |
| 2026-05-06 20:41 | 57.15461 | 10.85729 | 27797 ft | 441 kts | 19° |
| 2026-05-06 20:42 | 57.18276 | 10.87915 | 27257 ft | 437 kts | 19° |
| 2026-05-06 20:42 | 57.21064 | 10.90080 | 26731 ft | 433 kts | 19° |
| 2026-05-06 20:42 | 57.23825 | 10.92228 | 26224 ft | 429 kts | 19° |
| 2026-05-06 20:42 | 57.26562 | 10.94357 | 25715 ft | 425 kts | 19° |
| 2026-05-06 20:43 | 57.29229 | 10.96484 | 25214 ft | 423 kts | 23° |
| 2026-05-06 20:43 | 57.31721 | 10.99377 | 24722 ft | 424 kts | 36° |
| 2026-05-06 20:43 | 57.33840 | 11.03167 | 24228 ft | 424 kts | 49° |
| 2026-05-06 20:43 | 57.35493 | 11.07684 | 23711 ft | 424 kts | 62° |
| 2026-05-06 20:44 | 57.36685 | 11.12664 | 23147 ft | 422 kts | 68° |
| 2026-05-06 20:44 | 57.37796 | 11.17632 | 22690 ft | 415 kts | 67° |
| 2026-05-06 20:44 | 57.38911 | 11.22583 | 22073 ft | 415 kts | 67° |
| 2026-05-06 20:44 | 57.40023 | 11.27494 | 21562 ft | 411 kts | 67° |
| 2026-05-06 20:45 | 57.41123 | 11.32370 | 21038 ft | 408 kts | 67° |
| 2026-05-06 20:45 | 57.42211 | 11.37221 | 20530 ft | 406 kts | 67° |
| 2026-05-06 20:45 | 57.43279 | 11.42007 | 19994 ft | 395 kts | 67° |
| 2026-05-06 20:45 | 57.44304 | 11.46622 | 19556 ft | 378 kts | 67° |
| 2026-05-06 20:46 | 57.45285 | 11.51042 | 19097 ft | 363 kts | 66° |
| 2026-05-06 20:46 | 57.46245 | 11.55372 | 18657 ft | 363 kts | 66° |
| 2026-05-06 20:46 | 57.47202 | 11.59702 | 18214 ft | 362 kts | 66° |
| 2026-05-06 20:46 | 57.48155 | 11.64019 | 17736 ft | 360 kts | 66° |
| 2026-05-06 20:47 | 57.49103 | 11.68307 | 17306 ft | 357 kts | 66° |
| 2026-05-06 20:47 | 57.50042 | 11.72564 | 16872 ft | 355 kts | 67° |
| 2026-05-06 20:47 | 57.50958 | 11.76734 | 16452 ft | 352 kts | 67° |
| 2026-05-06 20:47 | 57.51879 | 11.80952 | 16030 ft | 350 kts | 67° |
| 2026-05-06 20:48 | 57.52789 | 11.85134 | 15613 ft | 348 kts | 67° |
| 2026-05-06 20:48 | 57.53701 | 11.89297 | 15197 ft | 346 kts | 66° |
| 2026-05-06 20:48 | 57.54878 | 11.93170 | 14780 ft | 343 kts | 51° |
| 2026-05-06 20:48 | 57.56509 | 11.96364 | 14364 ft | 339 kts | 37° |
| 2026-05-06 20:49 | 57.58473 | 11.98724 | 13915 ft | 335 kts | 23° |
| 2026-05-06 20:49 | 57.60659 | 12.00166 | 13436 ft | 332 kts | 12° |
| 2026-05-06 20:49 | 57.62885 | 12.01231 | 12985 ft | 329 kts | 12° |
| 2026-05-06 20:49 | 57.65100 | 12.02295 | 12527 ft | 327 kts | 12° |
| 2026-05-06 20:50 | 57.67288 | 12.03350 | 12212 ft | 321 kts | 13° |
| 2026-05-06 20:50 | 57.69410 | 12.04381 | 11849 ft | 310 kts | 13° |
| 2026-05-06 20:50 | 57.71485 | 12.05390 | 11127 ft | 307 kts | 13° |
| 2026-05-06 20:50 | 57.73548 | 12.06392 | 10471 ft | 307 kts | 13° |
| 2026-05-06 20:51 | 57.75605 | 12.07392 | 10083 ft | 304 kts | 13° |
| 2026-05-06 20:51 | 57.77633 | 12.08382 | 9875 ft | 296 kts | 13° |
| 2026-05-06 20:51 | 57.79597 | 12.09340 | 9607 ft | 289 kts | 13° |
| 2026-05-06 20:51 | 57.81511 | 12.10286 | 9235 ft | 287 kts | 13° |
| 2026-05-06 20:52 | 57.83438 | 12.11246 | 8791 ft | 284 kts | 13° |
| 2026-05-06 20:52 | 57.85337 | 12.12191 | 8073 ft | 282 kts | 13° |
| 2026-05-06 20:52 | 57.87235 | 12.13134 | 7355 ft | 281 kts | 14° |
| 2026-05-06 20:52 | 57.89007 | 12.14599 | 6669 ft | 279 kts | 37° |
| 2026-05-06 20:53 | 57.90245 | 12.17363 | 6070 ft | 278 kts | 62° |
| 2026-05-06 20:53 | 57.91123 | 12.20596 | 5637 ft | 277 kts | 65° |
| 2026-05-06 20:53 | 57.91944 | 12.23861 | 5251 ft | 274 kts | 69° |
| 2026-05-06 20:53 | 57.92264 | 12.27331 | 4865 ft | 269 kts | 97° |
| 2026-05-06 20:54 | 57.91683 | 12.30587 | 4489 ft | 262 kts | 126° |
| 2026-05-06 20:54 | 57.90431 | 12.32913 | 4346 ft | 247 kts | 143° |
| 2026-05-06 20:54 | 57.89091 | 12.34808 | 4210 ft | 236 kts | 145° |
| 2026-05-06 20:54 | 57.87797 | 12.36576 | 4078 ft | 225 kts | 145° |
| 2026-05-06 20:55 | 57.86491 | 12.38082 | 3945 ft | 215 kts | 154° |
| 2026-05-06 20:55 | 57.85169 | 12.39320 | 3803 ft | 210 kts | 155° |
| 2026-05-06 20:55 | 57.83857 | 12.40506 | 3563 ft | 209 kts | 155° |
| 2026-05-06 20:55 | 57.82496 | 12.41402 | 3333 ft | 205 kts | 173° |
| 2026-05-06 20:56 | 57.81111 | 12.41328 | 3214 ft | 197 kts | 195° |
| 2026-05-06 20:56 | 57.79869 | 12.40407 | 3110 ft | 187 kts | 207° |
| 2026-05-06 20:56 | 57.78742 | 12.39373 | 3001 ft | 174 kts | 207° |
| 2026-05-06 20:56 | 57.77689 | 12.38407 | 2789 ft | 168 kts | 207° |
| 2026-05-06 20:57 | 57.76645 | 12.37450 | 2590 ft | 166 kts | 207° |
| 2026-05-06 20:57 | 57.75627 | 12.36518 | 2360 ft | 157 kts | 207° |
| 2026-05-06 20:57 | 57.74688 | 12.35659 | 2159 ft | 145 kts | 207° |
| 2026-05-06 20:57 | 57.73775 | 12.34818 | 1904 ft | 146 kts | 208° |
| 2026-05-06 20:58 | 57.72861 | 12.33980 | 1697 ft | 147 kts | 208° |
| 2026-05-06 20:58 | 57.71953 | 12.33151 | 1491 ft | 144 kts | 208° |
| 2026-05-06 20:58 | 57.71066 | 12.32341 | 1313 ft | 141 kts | 207° |
| 2026-05-06 20:58 | 57.70185 | 12.31541 | 1109 ft | 140 kts | 207° |
| 2026-05-06 20:59 | 57.69322 | 12.30759 | 909 ft | 137 kts | 207° |
| 2026-05-06 20:59 | 57.68473 | 12.29983 | 739 ft | 134 kts | 208° |
| 2026-05-06 20:59 | 57.67637 | 12.29214 | 572 ft | 133 kts | 207° |
| 2026-05-06 20:59 | 57.66869 | 12.28509 | 524 ft | 103 kts | 206° |
| 2026-05-06 21:00 | 57.66370 | 12.28050 | 523 ft | 66 kts | 206° |
| 2026-05-06 21:00 | 57.66030 | 12.27739 | 521 ft | 43 kts | 206° |
| 2026-05-06 21:00 | 57.65820 | 12.27663 | 523 ft | 24 kts | 181° |
| 2026-05-06 21:00 | 57.65722 | 12.27725 | 526 ft | 10 kts | 122° |
| 2026-05-06 21:01 | 57.65743 | 12.27832 | 524 ft | 10 kts | 38° |
| 2026-05-06 21:01 | 57.65802 | 12.27889 | 524 ft | 9 kts | 26° |
| 2026-05-06 21:01 | 57.65867 | 12.27947 | 523 ft | 15 kts | 25° |
| 2026-05-06 21:01 | 57.65994 | 12.28062 | 519 ft | 24 kts | 27° |
| 2026-05-06 21:02 | 57.66152 | 12.28207 | 517 ft | 27 kts | 26° |
| 2026-05-06 21:02 | 57.66314 | 12.28355 | 520 ft | 24 kts | 26° |
| 2026-05-06 21:02 | 57.66467 | 12.28491 | 520 ft | 26 kts | 27° |
| 2026-05-06 21:02 | 57.66602 | 12.28614 | 518 ft | 17 kts | 26° |
| 2026-05-06 21:03 | 57.66667 | 12.28748 | 516 ft | 15 kts | 103° |
| 2026-05-06 21:03 | 57.66625 | 12.28901 | 518 ft | 11 kts | 117° |
| 2026-05-06 21:03 | 57.66614 | 12.28993 | 522 ft | 3 kts | 64° |
| 2026-05-06 21:03 | 57.66645 | 12.29029 | 523 ft | 10 kts | 22° |
| 2026-05-06 21:04 | 57.66729 | 12.29104 | 524 ft | 14 kts | 26° |
| 2026-05-06 21:04 | 57.66749 | 12.29189 | 526 ft | 5 kts | 116° |
| 2026-05-06 21:04 | 57.66730 | 12.29261 | 527 ft | 5 kts | 116° |
| 2026-05-06 21:04 | 57.66726 | 12.29276 | 527 ft | 1 kts | 116° |
| 2026-05-06 21:05 | 57.66725 | 12.29280 | 527 ft | 0 kts | 116° |